Time;durP1;ratioP1;P1;durP2;ratioP2;P2;SDS_P1;SDS_P2;PMS_P1;PMS_P2;Temp;Humidity;BMP_temperature;BMP_pressure;BME280_temperature;BME280_humidity;BME280_pressure;Samples;Min_cycle;Max_cycle;Signal;HPM_P1;HPM_P2
2022/12/18 00:01:21;;;;;;;23.33;10.18;;;-9.00;99.90;;;-11.00;100.00;102149.47;4911342;29;20532;-79
2022/12/18 00:03:47;;;;;;;23.55;10.98;;;-8.90;99.90;;;-10.89;100.00;102156.22;4909774;29;20028;-80
2022/12/18 00:06:14;;;;;;;25.02;11.50;;;-8.80;99.90;;;-10.89;100.00;102167.63;4911601;29;20067;-80
2022/12/18 00:08:42;;;;;;;25.85;10.57;;;-8.70;99.90;;;-10.89;100.00;102164.13;4907027;29;20043;-79
2022/12/18 00:11:13;;;;;;;25.38;11.35;;;-8.70;99.90;;;-11.04;100.00;102160.97;4912391;29;20095;-80
2022/12/18 00:13:39;;;;;;;27.23;10.27;;;-8.90;99.90;;;-11.22;100.00;102151.75;4911108;29;20052;-80
2022/12/18 00:16:10;;;;;;;19.25;9.85;;;-9.00;99.90;;;-11.35;100.00;102167.03;4912389;29;20048;-80
2022/12/18 00:18:37;;;;;;;23.40;10.25;;;-9.20;99.90;;;-11.49;100.00;102167.34;4912341;29;20034;-79
2022/12/18 00:21:06;;;;;;;23.45;10.07;;;-9.40;99.90;;;-11.63;100.00;102165.03;4911214;29;20044;-80
2022/12/18 00:23:34;;;;;;;21.90;9.95;;;-9.50;99.90;;;-11.57;100.00;102179.84;4911649;29;20032;-79
2022/12/18 00:26:02;;;;;;;23.92;9.20;;;-9.60;99.90;;;-11.70;100.00;102185.38;4911212;29;20084;-79
2022/12/18 00:28:30;;;;;;;22.38;10.23;;;-9.70;99.90;;;-11.81;100.00;102186.53;4912287;29;20028;-80
2022/12/18 00:31:05;;;;;;;21.50;10.20;;;-9.80;99.90;;;-11.88;100.00;102170.03;4911983;29;20491;-80
2022/12/18 00:33:31;;;;;;;21.10;9.57;;;-9.80;99.90;;;-11.77;100.00;102173.25;4908570;29;20028;-79
2022/12/18 00:36:06;;;;;;;23.60;10.68;;;-9.70;99.90;;;-11.69;100.00;102175.72;4909161;29;20036;-79
2022/12/18 00:38:33;;;;;;;22.17;10.68;;;-9.60;99.90;;;-11.64;100.00;102181.75;4911375;29;20079;-80
2022/12/18 00:40:59;;;;;;;20.23;9.77;;;-9.50;99.90;;;-11.71;100.00;102175.75;4906467;29;20091;-80
2022/12/18 00:43:26;;;;;;;21.60;9.98;;;-9.50;99.90;;;-11.73;100.00;102176.72;4909069;29;20038;-79
2022/12/18 00:45:53;;;;;;;22.77;9.45;;;-9.60;99.90;;;-11.85;100.00;102175.22;4911716;29;20066;-80
2022/12/18 00:48:19;;;;;;;21.23;9.43;;;-9.70;99.90;;;-11.93;100.00;102183.28;4904523;29;20528;-79
2022/12/18 00:50:44;;;;;;;24.20;9.52;;;-9.80;99.90;;;-11.99;100.00;102188.69;4910854;29;20042;-80
2022/12/18 00:53:11;;;;;;;25.70;9.38;;;-9.80;99.90;;;-11.97;100.00;102193.91;4905642;29;20065;-79
2022/12/18 00:55:39;;;;;;;22.87;10.83;;;-9.80;99.90;;;-11.89;100.00;102205.16;4911921;29;20131;-80
2022/12/18 00:58:05;;;;;;;21.75;10.00;;;-9.70;99.90;;;-11.82;100.00;102198.84;4907785;29;20319;-79
2022/12/18 01:00:31;;;;;;;23.70;9.77;;;-9.60;99.90;;;-11.75;100.00;102196.94;4907747;29;20036;-79
2022/12/18 01:02:56;;;;;;;21.67;10.30;;;-9.60;99.90;;;-11.75;100.00;102197.78;4900087;29;20048;-81
2022/12/18 01:05:24;;;;;;;21.95;9.80;;;-9.50;99.90;;;-11.82;100.00;102198.84;4909973;29;20036;-79
2022/12/18 01:07:50;;;;;;;25.35;10.35;;;-9.60;99.90;;;-11.89;100.00;102190.19;4903522;29;20040;-79
2022/12/18 01:10:16;;;;;;;19.50;9.75;;;-9.70;99.90;;;-11.99;100.00;102194.78;4910590;29;20047;-79
2022/12/18 01:12:42;;;;;;;22.17;9.65;;;-9.80;99.90;;;-12.00;100.00;102202.75;4911109;29;20038;-79
2022/12/18 01:15:12;;;;;;;18.42;8.90;;;-9.80;99.90;;;-11.76;100.00;102197.84;4905105;29;20032;-78
2022/12/18 01:17:40;;;;;;;25.75;10.40;;;-9.70;99.90;;;-11.53;100.00;102196.47;4909631;29;20040;-79
2022/12/18 01:20:08;;;;;;;20.20;9.30;;;-9.50;99.90;;;-11.37;100.00;102186.44;4908957;29;20372;-79
2022/12/18 01:22:37;;;;;;;24.50;10.70;;;-9.30;99.90;;;-11.29;100.00;102187.09;4904279;29;20060;-80
2022/12/18 01:25:05;;;;;;;20.85;9.65;;;-9.20;99.90;;;-11.20;100.00;102193.91;4908536;29;20063;-79
2022/12/18 01:27:33;;;;;;;17.33;9.70;;;-9.10;99.90;;;-11.20;100.00;102194.75;4909831;29;20050;-80
2022/12/18 01:29:58;;;;;;;;;;;-9.10;99.90;;;-11.14;100.00;102204.31;4906448;29;20614;-79
2022/12/18 01:32:25;;;;;;;22.80;9.25;;;-9.00;99.90;;;-10.99;100.00;102203.06;4919752;29;19970;-80
2022/12/18 01:34:51;;;;;;;21.65;9.63;;;-8.90;99.90;;;-10.98;100.00;102196.88;4910275;29;20052;-79
2022/12/18 01:37:16;;;;;;;23.65;9.60;;;-8.90;99.90;;;-11.00;100.00;102196.03;4910107;29;20095;-79
2022/12/18 01:39:42;;;;;;;24.95;10.77;;;-8.80;99.90;;;-10.76;100.00;102199.81;4904868;29;20029;-79
2022/12/18 01:42:14;;;;;;;22.45;10.32;;;-8.70;99.90;;;-10.46;100.00;102193.75;4910768;29;20099;-78
2022/12/18 01:45:00;;;;;;;20.58;9.57;;;-8.50;99.90;;;-10.30;100.00;102197.69;4909407;29;20036;-79
2022/12/18 01:47:49;;;;;;;23.08;10.50;;;-8.30;99.90;;;-10.28;100.00;102200.25;4908843;29;20580;-79
2022/12/18 01:50:35;;;;;;;22.77;9.90;;;-8.20;99.90;;;-10.32;100.00;102201.25;4908257;29;20072;-79
2022/12/18 01:53:14;;;;;;;22.17;9.45;;;-8.20;99.90;;;-10.33;100.00;102192.50;4902551;29;20111;-80
2022/12/18 01:55:46;;;;;;;23.67;9.77;;;-8.20;99.90;;;-10.29;100.00;102199.41;4910459;29;20027;-78
2022/12/18 01:58:13;;;;;;;24.80;10.20;;;-8.20;99.90;;;-10.25;100.00;102208.09;4902097;29;20114;-79
2022/12/18 02:00:39;;;;;;;21.90;9.95;;;-8.20;99.90;;;-10.27;100.00;102202.88;4900557;29;20066;-78
2022/12/18 02:03:05;;;;;;;22.50;10.48;;;-8.10;99.90;;;-10.38;100.00;102206.72;4907098;29;20106;-79
2022/12/18 02:06:17;;;;;;;20.33;9.40;;;-8.20;99.90;;;-10.39;100.00;102219.03;4908460;29;20097;-79
2022/12/18 02:09:13;;;;;;;17.90;9.32;;;-8.20;99.90;;;-10.34;100.00;102211.88;4894383;29;20127;-78
2022/12/18 02:11:56;;;;;;;20.70;9.25;;;-8.30;99.90;;;-10.28;100.00;102208.19;4902340;29;20051;-79
2022/12/18 02:14:47;;;;;;;20.08;9.40;;;-8.20;99.90;;;-10.27;100.00;102209.91;4901593;29;20548;-79
2022/12/18 02:17:20;;;;;;;22.90;9.57;;;-8.20;99.90;;;-10.29;100.00;102215.25;4909349;29;20159;-78
2022/12/18 02:20:17;;;;;;;24.60;10.30;;;-8.20;99.90;;;-10.26;100.00;102207.22;4908443;29;20512;-79
2022/12/18 02:23:04;;;;;;;23.00;11.07;;;-8.10;99.90;;;-10.28;100.00;102210.81;4911295;29;20074;-78
2022/12/18 02:26:09;;;;;;;22.45;9.80;;;-8.10;99.90;;;-10.29;100.00;102209.97;4908947;29;20032;-78
2022/12/18 02:28:45;;;;;;;18.17;8.90;;;-8.10;99.90;;;-10.36;100.00;102213.66;4904321;29;20044;-79
2022/12/18 02:31:19;;;;;;;20.65;9.10;;;-8.20;99.90;;;-10.61;100.00;102214.38;4904178;29;20036;-78
2022/12/18 02:33:47;;;;;;;20.02;9.18;;;-8.40;99.90;;;-10.84;100.00;102209.69;4903985;29;20515;-78
2022/12/18 02:36:16;;;;;;;20.50;9.13;;;-8.70;99.90;;;-11.03;100.00;102207.53;4909338;29;20111;-78
2022/12/18 02:38:45;;;;;;;20.88;9.30;;;-8.90;99.90;;;-11.06;100.00;102197.06;4921720;29;21045;-78
2022/12/18 02:41:16;;;;;;;20.80;8.82;;;-8.90;99.90;;;-11.06;100.00;102204.97;4903033;29;20377;-78
2022/12/18 02:43:55;;;;;;;20.48;8.73;;;-8.90;99.90;;;-11.02;100.00;102200.50;4910452;29;20420;-79
2022/12/18 02:46:30;;;;;;;19.02;8.35;;;-8.90;99.90;;;-11.07;100.00;102195.31;4907269;29;20036;-79
2022/12/18 02:49:25;;;;;;;21.35;8.95;;;-8.90;99.90;;;-11.04;100.00;102204.94;4898065;29;20056;-79
2022/12/18 02:52:42;;;;;;;18.23;8.68;;;-8.90;99.90;;;-11.06;100.00;102196.22;4909711;29;20045;-78
2022/12/18 02:55:27;;;;;;;17.15;7.57;;;-8.90;99.90;;;-11.00;100.00;102196.03;4906703;29;20036;-78
2022/12/18 02:58:16;;;;;;;17.98;8.35;;;-8.90;99.90;;;-11.07;100.00;102197.13;4905950;29;20097;-79
2022/12/18 03:01:05;;;;;;;16.98;8.30;;;-8.90;99.90;;;-11.04;100.00;102189.13;4909329;29;20052;-78
2022/12/18 03:03:52;;;;;;;16.75;7.97;;;-8.90;99.90;;;-11.18;100.00;102190.31;4909793;29;20032;-78
2022/12/18 03:06:31;;;;;;;16.13;8.23;;;-9.00;99.90;;;-11.34;100.00;102196.88;4899694;29;20464;-78
2022/12/18 03:09:11;;;;;;;16.85;7.88;;;-9.20;99.90;;;-11.49;100.00;102204.25;4900003;29;20033;-79
2022/12/18 03:14:33;;;;;;;18.58;8.15;;;-9.50;99.90;;;-11.72;100.00;102191.59;4909836;29;20036;-79
2022/12/18 03:17:12;;;;;;;21.20;8.70;;;-9.60;99.90;;;-11.86;100.00;102186.66;4900081;29;20115;-78
2022/12/18 03:19:41;;;;;;;15.35;8.00;;;-9.70;99.90;;;-11.98;100.00;102182.50;4903784;29;20416;-79
2022/12/18 03:22:09;;;;;;;18.60;8.15;;;-9.80;99.90;;;-11.97;100.00;102180.72;4918784;29;20179;-80
2022/12/18 03:24:48;;;;;;;19.83;8.20;;;-9.90;99.90;;;-11.86;100.00;102186.66;4905136;29;20032;-80
2022/12/18 03:27:22;;;;;;;17.05;8.23;;;-9.80;99.90;;;-11.83;100.00;102190.97;4909174;29;20122;-80
2022/12/18 03:30:14;;;;;;;18.33;8.48;;;-9.80;99.90;;;-11.70;100.00;102180.13;4909455;29;20036;-80
2022/12/18 03:32:58;;;;;;;18.45;7.72;;;-9.80;99.90;;;-11.61;100.00;102186.09;4913617;29;20043;-79
2022/12/18 03:35:32;;;;;;;16.60;8.23;;;-9.70;99.90;;;-11.73;100.00;102182.81;4917076;29;20043;-79
2022/12/18 03:37:58;;;;;;;15.52;7.93;;;-9.80;99.90;;;-11.85;100.00;102185.75;4905326;29;20392;-79
2022/12/18 03:40:40;;;;;;;19.60;8.35;;;-9.80;99.90;;;-11.93;100.00;102183.28;4905730;29;20046;-81
2022/12/18 03:43:53;;;;;;;16.83;7.13;;;-9.80;99.90;;;-11.76;100.00;102184.69;4917024;29;20043;-80
2022/12/18 03:46:32;;;;;;;16.45;6.85;;;-9.70;99.90;;;-11.52;100.00;102188.50;4909136;29;20040;-80
2022/12/18 03:49:18;;;;;;;15.98;7.47;;;-9.40;99.90;;;-11.58;100.00;102188.66;4910515;29;20043;-79
2022/12/18 03:52:04;;;;;;;16.77;7.78;;;-9.50;99.90;;;-11.73;100.00;102185.47;4909245;29;20036;-80
2022/12/18 03:54:33;;;;;;;17.42;7.60;;;-9.60;99.90;;;-11.87;100.00;102182.28;4903695;29;20024;-79
2022/12/18 03:57:19;;;;;;;16.30;7.70;;;-9.70;99.90;;;-11.83;100.00;102186.56;4923695;29;20323;-79
2022/12/18 03:59:56;;;;;;;17.42;7.88;;;-9.80;99.90;;;-11.85;100.00;102186.59;4907646;29;20024;-79
2022/12/18 04:02:28;;;;;;;18.35;7.75;;;-9.80;99.90;;;-12.02;100.00;102189.63;4911015;29;20479;-78
2022/12/18 04:05:00;;;;;;;15.73;7.00;;;-10.00;99.90;;;-12.13;100.00;102178.47;4927490;29;20032;-79
2022/12/18 04:07:27;;;;;;;14.90;7.47;;;-10.00;99.90;;;-12.09;100.00;102185.41;4908259;29;20036;-78
2022/12/18 04:10:01;;;;;;;20.98;7.70;;;-10.10;99.90;;;-12.10;100.00;102181.03;4907172;29;20031;-78
2022/12/18 04:12:30;;;;;;;16.35;8.50;;;-10.10;99.90;;;-12.12;100.00;102193.38;4911023;29;20027;-79
2022/12/18 04:14:56;;;;;;;18.25;7.88;;;-10.10;99.90;;;-12.03;100.00;102192.31;4911753;29;20450;-79
2022/12/18 04:17:22;;;;;;;12.85;6.95;;;-10.10;99.90;;;-12.12;100.00;102203.03;4912100;29;20190;-78
2022/12/18 04:19:48;;;;;;;14.73;6.88;;;-10.10;99.90;;;-12.22;100.00;102187.44;4913368;29;20501;-79
2022/12/18 04:22:14;;;;;;;14.88;6.65;;;-10.10;99.90;;;-12.13;100.00;102202.16;4903663;29;20059;-78
2022/12/18 04:24:44;;;;;;;15.18;7.15;;;-10.10;99.90;;;-12.06;100.00;102201.13;4911386;29;20072;-78
2022/12/18 04:27:18;;;;;;;16.33;7.80;;;-10.10;99.90;;;-12.12;100.00;102203.03;4903833;29;20032;-79
2022/12/18 04:29:48;;;;;;;16.30;7.03;;;-10.10;99.90;;;-12.17;100.00;102200.50;4908044;29;20025;-78
2022/12/18 04:32:14;;;;;;;17.60;6.63;;;-10.10;99.90;;;-12.30;100.00;102194.63;4911846;29;20102;-79
2022/12/18 04:34:43;;;;;;;16.63;6.78;;;-10.20;99.90;;;-12.39;100.00;102190.41;4907165;29;20483;-78
2022/12/18 04:37:09;;;;;;;17.05;7.50;;;-10.30;99.90;;;-12.47;100.00;102187.03;4905523;29;20040;-78
2022/12/18 04:39:35;;;;;;;14.40;6.35;;;-10.30;99.90;;;-12.55;100.00;102189.84;4907654;29;20402;-79
2022/12/18 04:42:06;;;;;;;15.40;6.85;;;-10.40;99.90;;;-12.60;100.00;102187.28;4905035;29;20044;-77
2022/12/18 04:44:34;;;;;;;18.00;6.72;;;-10.50;99.90;;;-12.58;100.00;102182.88;4907988;29;20028;-78
2022/12/18 04:47:00;;;;;;;14.25;6.20;;;-10.50;99.90;;;-12.60;100.00;102179.41;4906887;29;20044;-78
2022/12/18 04:49:26;;;;;;;16.23;7.20;;;-10.50;99.90;;;-12.55;100.00;102181.06;4909908;29;20063;-78
2022/12/18 04:51:53;;;;;;;16.52;7.05;;;-10.50;99.90;;;-12.52;100.00;102181.00;4910677;29;20728;-78
2022/12/18 04:54:19;;;;;;;20.05;6.93;;;-10.50;99.90;;;-12.38;100.00;102180.72;4911334;29;20135;-77
2022/12/18 04:56:44;;;;;;;16.27;7.03;;;-10.40;99.90;;;-12.34;100.00;102178.03;4911467;29;20096;-79
2022/12/18 04:59:10;;;;;;;18.88;7.28;;;-10.30;99.90;;;-12.27;100.00;102185.78;4910680;29;20092;-79
2022/12/18 05:01:36;;;;;;;15.63;6.18;;;-10.30;99.90;;;-12.25;100.00;102184.88;4907282;29;20021;-79
2022/12/18 05:04:03;;;;;;;22.92;7.07;;;-10.20;99.90;;;-12.12;100.00;102187.22;4910771;29;20028;-77
2022/12/18 05:06:29;;;;;;;24.50;8.05;;;-10.20;99.90;;;-12.01;100.00;102195.78;4909971;29;20036;-78
2022/12/18 05:08:55;;;;;;;18.48;6.90;;;-10.10;99.90;;;-12.07;100.00;102188.88;4910467;29;20036;-77
2022/12/18 05:11:21;;;;;;;17.63;7.05;;;-10.00;99.90;;;-12.15;100.00;102194.28;4910487;29;20075;-78
2022/12/18 05:13:47;;;;;;;21.00;7.15;;;-10.10;99.90;;;-12.00;100.00;102203.59;4910026;29;20051;-78
2022/12/18 05:16:14;;;;;;;18.33;7.15;;;-10.00;99.90;;;-11.67;100.00;102200.25;4911322;29;20571;-78
2022/12/18 05:18:40;;;;;;;18.42;7.53;;;-9.70;99.90;;;-11.71;100.00;102190.72;4904052;29;20060;-78
2022/12/18 05:21:06;;;;;;;16.58;7.47;;;-9.60;99.90;;;-11.92;100.00;102194.69;4906438;29;20044;-77
2022/12/18 05:23:36;;;;;;;19.15;7.38;;;-9.70;99.90;;;-12.18;100.00;102193.50;4897173;29;20029;-78
2022/12/18 05:26:05;;;;;;;19.42;7.03;;;-10.00;99.90;;;-12.33;100.00;102189.38;4911057;29;20037;-78
2022/12/18 05:28:33;;;;;;;15.30;6.68;;;-10.20;99.90;;;-12.05;100.00;102191.47;4906929;29;20403;-78
2022/12/18 05:31:02;;;;;;;16.77;6.82;;;-10.10;99.90;;;-11.61;100.00;102189.59;4907815;29;20068;-78
2022/12/18 05:33:32;;;;;;;12.85;6.75;;;-9.60;99.90;;;-11.45;100.00;102200.63;4909821;29;20039;-79
2022/12/18 05:36:01;;;;;;;14.25;6.68;;;-9.40;99.90;;;-11.32;100.00;102200.34;4905547;29;20028;-78
2022/12/18 05:38:30;;;;;;;14.80;6.65;;;-9.20;99.90;;;-11.17;100.00;102207.88;4910611;29;20032;-78
2022/12/18 05:40:57;;;;;;;16.67;6.90;;;-9.10;99.90;;;-11.13;100.00;102216.56;4908098;29;20032;-78
2022/12/18 05:43:25;;;;;;;12.30;7.10;;;-9.00;99.90;;;-11.17;100.00;102220.19;4910491;29;20151;-78
2022/12/18 05:45:52;;;;;;;20.60;7.50;;;-9.00;99.90;;;-11.17;100.00;102217.56;4901198;29;20051;-78
2022/12/18 05:48:20;;;;;;;16.25;7.35;;;-9.00;99.90;;;-11.13;100.00;102222.72;4905941;29;20044;-77
2022/12/18 05:50:48;;;;;;;17.33;6.93;;;-9.00;99.90;;;-11.19;100.00;102224.63;4907865;29;20071;-78
2022/12/18 05:53:15;;;;;;;;;;;-9.00;99.90;;;-11.15;100.00;102234.19;4901674;29;20118;-78
2022/12/18 05:55:43;;;;;;;13.95;6.93;;;-9.00;99.90;;;-11.18;100.00;102227.22;4908704;29;19915;-77
2022/12/18 05:58:10;;;;;;;13.27;6.53;;;-9.00;99.90;;;-11.10;100.00;102242.00;4907711;29;20039;-77
2022/12/18 06:00:39;;;;;;;;;;;-9.00;99.90;;;-11.13;100.00;102240.31;4906975;29;20095;-76
2022/12/18 06:03:07;;;;;;;15.93;6.30;;;-9.00;99.90;;;-11.17;100.00;102247.41;4905829;29;20012;-79
2022/12/18 06:05:42;;;;;;;;;;;-9.10;99.90;;;-11.07;100.00;102248.06;4909871;29;20064;-79
2022/12/18 06:08:09;;;;;;;12.95;6.15;;;-9.00;99.90;;;-10.99;100.00;102246.13;4909201;29;19998;-80
2022/12/18 06:10:35;;;;;;;14.65;6.78;;;-8.90;99.90;;;-10.91;100.00;102250.31;4903921;29;20040;-80
2022/12/18 06:13:01;;;;;;;17.98;7.30;;;-8.80;99.90;;;-11.03;100.00;102243.59;4907545;29;20040;-80
2022/12/18 06:15:27;;;;;;;14.73;7.53;;;-8.80;99.90;;;-11.30;100.00;102241.56;4917358;29;20154;-79
2022/12/18 06:17:53;;;;;;;18.05;7.63;;;-9.10;99.90;;;-11.58;100.00;102241.34;4910486;29;20133;-80
2022/12/18 06:20:19;;;;;;;13.68;6.70;;;-9.40;99.90;;;-11.82;100.00;102234.81;4910029;29;20044;-78
2022/12/18 06:22:44;;;;;;;14.48;6.60;;;-9.70;99.90;;;-12.05;100.00;102242.34;4912070;29;20047;-79
2022/12/18 06:25:10;;;;;;;15.95;7.18;;;-9.90;99.90;;;-12.21;100.00;102240.91;4911465;29;20039;-78
2022/12/18 06:27:36;;;;;;;14.50;5.78;;;-10.10;99.90;;;-12.20;100.00;102240.00;4909286;29;20040;-77
2022/12/18 06:30:04;;;;;;;11.02;5.35;;;-10.10;99.90;;;-11.90;100.00;102242.91;4917581;29;20091;-77
2022/12/18 06:32:30;;;;;;;13.30;6.38;;;-9.90;99.90;;;-11.55;100.00;102230.72;4901971;29;20032;-77
2022/12/18 06:34:56;;;;;;;15.88;6.40;;;-9.60;99.90;;;-11.28;100.00;102233.63;4906485;29;20041;-77
2022/12/18 06:37:25;;;;;;;12.65;5.70;;;-9.40;99.90;;;-11.13;100.00;102224.47;4907336;29;20032;-77
2022/12/18 06:39:52;;;;;;;12.52;6.10;;;-9.10;99.90;;;-10.93;100.00;102228.41;4907875;29;20119;-77
2022/12/18 06:42:18;;;;;;;14.07;6.43;;;-8.90;99.90;;;-10.70;100.00;102230.44;4911452;29;20035;-77
2022/12/18 06:44:44;;;;;;;18.40;6.88;;;-8.70;99.90;;;-10.48;100.00;102230.72;4905505;29;20035;-77
2022/12/18 06:47:10;;;;;;;18.00;6.88;;;-8.50;99.90;;;-10.48;100.00;102240.44;4906468;29;20040;-77
2022/12/18 06:49:36;;;;;;;12.98;6.10;;;-8.40;99.90;;;-10.49;100.00;102238.69;4904077;29;20059;-77
2022/12/18 06:52:01;;;;;;;16.65;7.15;;;-8.40;99.90;;;-10.56;100.00;102246.78;4908051;29;20033;-78
2022/12/18 06:54:27;;;;;;;15.38;7.32;;;-8.40;99.90;;;-10.73;100.00;102244.59;4909089;29;20464;-78
2022/12/18 06:56:54;;;;;;;17.13;6.78;;;-8.60;99.90;;;-10.74;100.00;102253.41;4914373;29;20548;-78
2022/12/18 06:59:19;;;;;;;16.13;6.82;;;-8.60;99.90;;;-10.83;100.00;102248.34;4908589;29;20048;-79
2022/12/18 07:01:45;;;;;;;14.05;6.22;;;-8.70;99.90;;;-10.96;100.00;102244.31;4908264;29;20032;-79
2022/12/18 07:04:11;;;;;;;13.18;5.88;;;-8.90;99.90;;;-11.15;100.00;102245.59;4910255;29;20038;-80
2022/12/18 07:06:37;;;;;;;14.68;6.13;;;-9.00;99.90;;;-11.23;100.00;102249.34;4913381;29;20091;-78
2022/12/18 07:09:03;;;;;;;10.90;5.50;;;-9.10;99.90;;;-11.30;100.00;102256.53;4906055;29;20054;-76
2022/12/18 07:11:28;;;;;;;13.63;6.20;;;-9.10;99.90;;;-11.39;100.00;102257.59;4913744;29;20031;-76
2022/12/18 07:13:54;;;;;;;14.65;5.50;;;-9.20;99.90;;;-11.45;100.00;102247.19;4914662;29;20036;-76
2022/12/18 07:16:21;;;;;;;15.57;6.30;;;-9.30;99.90;;;-11.51;100.00;102263.16;4909941;29;20040;-76
2022/12/18 07:18:47;;;;;;;10.57;5.45;;;-9.40;99.90;;;-11.58;100.00;102260.63;4913717;29;20099;-76
2022/12/18 07:21:16;;;;;;;13.48;5.75;;;-9.50;99.90;;;-11.60;100.00;102269.47;4916566;29;20122;-77
2022/12/18 07:23:43;;;;;;;14.93;6.20;;;-9.60;99.90;;;-11.62;100.00;102276.56;4913714;29;20051;-77
2022/12/18 07:26:14;;;;;;;13.30;5.75;;;-9.60;99.90;;;-11.60;100.00;102285.28;4914502;29;20063;-76
2022/12/18 07:28:41;;;;;;;11.52;5.47;;;-9.60;99.90;;;-11.63;100.00;102285.38;4911881;29;20175;-77
2022/12/18 07:31:12;;;;;;;16.00;6.53;;;-9.60;99.90;;;-11.57;100.00;102290.50;4912934;29;20369;-78
2022/12/18 07:33:39;;;;;;;11.75;5.80;;;-9.50;99.90;;;-11.50;100.00;102286.81;4912607;29;20308;-78
2022/12/18 07:36:07;;;;;;;14.88;6.05;;;-9.40;99.90;;;-11.45;100.00;102278.81;4908579;29;20032;-77
2022/12/18 07:38:34;;;;;;;19.75;6.18;;;-9.40;99.90;;;-11.33;100.00;102286.44;4911046;29;20036;-77
2022/12/18 07:41:10;;;;;;;13.52;6.15;;;-9.30;99.90;;;-11.30;100.00;102282.88;4915298;29;20032;-76
2022/12/18 07:43:36;;;;;;;18.40;6.70;;;-9.30;99.90;;;-11.23;100.00;102295.00;4915151;29;20039;-79
2022/12/18 07:46:03;;;;;;;14.45;6.88;;;-9.20;99.90;;;-10.97;100.00;102309.34;4913887;29;20043;-77
2022/12/18 07:48:29;;;;;;;16.10;6.72;;;-9.00;99.90;;;-10.84;100.00;102309.91;4912652;29;20138;-77
2022/12/18 07:51:00;;;;;;;14.55;6.60;;;-8.80;99.90;;;-10.75;100.00;102304.41;4910641;29;20044;-75
2022/12/18 07:53:26;;;;;;;13.32;6.68;;;-8.70;99.90;;;-10.57;100.00;102308.38;4912754;29;20028;-78
2022/12/18 07:56:02;;;;;;;17.27;7.00;;;-8.50;99.90;;;-10.34;100.00;102303.38;4908506;29;20388;-80
2022/12/18 07:58:29;;;;;;;16.67;6.78;;;-8.30;99.90;;;-10.26;100.00;102301.38;4907948;29;20043;-78
2022/12/18 08:01:07;;;;;;;14.18;6.80;;;-8.20;99.90;;;-10.27;100.00;102303.19;4915384;29;20314;-80
2022/12/18 08:03:34;;;;;;;16.95;6.57;;;-8.20;99.90;;;-10.29;100.00;102291.78;4912937;29;20150;-80
2022/12/18 08:06:06;;;;;;;16.73;7.03;;;-8.20;99.90;;;-10.20;100.00;102284.53;4904228;29;20040;-77
2022/12/18 08:08:34;;;;;;;17.55;7.47;;;-8.10;99.90;;;-10.06;100.00;102281.50;4912955;29;20040;-83
2022/12/18 08:11:01;;;;;;;16.08;7.82;;;-8.00;99.90;;;-9.94;100.00;102282.94;4912054;29;20440;-80
2022/12/18 08:13:30;;;;;;;17.10;8.45;;;-7.90;99.90;;;-9.84;100.00;102274.72;4916183;29;20563;-84
2022/12/18 08:16:06;;;;;;;16.90;8.40;;;-7.70;99.90;;;-9.78;100.00;102270.16;4909972;29;20119;-81
2022/12/18 08:18:36;;;;;;;17.38;8.15;;;-7.70;99.90;;;-9.77;100.00;102275.41;4902844;29;20024;-81
2022/12/18 08:21:20;;;;;;;18.10;9.25;;;-7.60;99.90;;;-9.70;100.00;102273.41;4908934;29;20044;-80
2022/12/18 08:23:46;;;;;;;20.25;8.30;;;-7.50;99.90;;;-9.71;100.00;102269.06;4905871;29;20039;-77
2022/12/18 08:26:13;;;;;;;18.40;9.38;;;-7.50;99.90;;;-9.66;100.00;102266.28;4913414;29;20407;-79
2022/12/18 08:28:40;;;;;;;23.00;10.35;;;-7.50;99.90;;;-9.57;100.00;102266.88;4913338;29;20031;-77
2022/12/18 08:31:09;;;;;;;19.17;8.93;;;-7.40;99.90;;;-9.50;100.00;102262.28;4901563;29;20051;-76
2022/12/18 08:33:37;;;;;;;17.23;9.18;;;-7.40;99.90;;;-9.37;100.00;102264.53;4902462;29;20059;-79
2022/12/18 08:36:04;;;;;;;18.63;8.68;;;-7.20;99.90;;;-9.27;100.00;102269.47;4907013;29;20033;-78
2022/12/18 08:38:31;;;;;;;16.70;8.20;;;-7.20;99.90;;;-9.15;100.00;102267.34;4912455;29;20040;-77
2022/12/18 08:41:07;;;;;;;17.90;8.43;;;-7.10;99.90;;;-9.01;100.00;102274.88;4906022;29;20036;-76
2022/12/18 08:46:19;;;;;;;20.00;9.05;;;-6.90;99.90;;;-8.74;100.00;102259.00;4906386;29;20092;-76
2022/12/18 08:48:45;;;;;;;18.27;8.63;;;-6.70;99.90;;;-8.58;100.00;102254.91;4912843;29;20051;-76
2022/12/18 08:51:11;;;;;;;20.20;9.68;;;-6.50;99.90;;;-8.46;100.00;102253.59;4934182;29;20070;-77
2022/12/18 08:53:38;;;;;;;23.38;9.95;;;-6.40;99.90;;;-8.34;100.00;102254.09;4915288;29;20385;-77
2022/12/18 08:56:08;;;;;;;20.00;9.75;;;-6.30;99.90;;;-8.19;100.00;102247.38;4916290;29;20483;-76
2022/12/18 08:58:34;;;;;;;22.13;10.40;;;-6.10;99.90;;;-8.06;100.00;102247.78;4912892;29;20044;-77
2022/12/18 09:01:06;;;;;;;21.65;10.32;;;-6.00;99.90;;;-7.92;100.00;102252.59;4904369;29;20160;-75
2022/12/18 09:03:33;;;;;;;18.50;10.07;;;-5.90;99.90;;;-7.78;100.00;102262.66;4906013;29;20036;-77
2022/12/18 09:05:59;;;;;;;21.00;9.57;;;-5.70;99.90;;;-7.67;100.00;102258.69;4908835;29;20130;-78
2022/12/18 09:08:26;;;;;;;22.23;10.15;;;-5.60;99.90;;;-7.52;100.00;102251.06;4910870;29;20043;-76
2022/12/18 09:10:52;;;;;;;22.77;11.30;;;-5.50;99.90;;;-7.31;100.00;102251.13;4905602;29;20032;-76
2022/12/18 09:13:18;;;;;;;32.03;13.55;;;-5.30;99.90;;;-7.04;100.00;102253.59;4907424;29;20127;-76
2022/12/18 09:15:51;;;;;;;39.05;18.42;;;-5.10;99.90;;;-6.74;100.00;102259.44;4904488;29;20054;-75
2022/12/18 09:18:20;;;;;;;22.13;11.30;;;-4.80;99.90;;;-6.49;100.00;102255.75;4911491;29;20032;-76
2022/12/18 09:20:47;;;;;;;26.15;12.45;;;-4.60;99.90;;;-6.37;100.00;102244.59;4905911;29;20040;-77
2022/12/18 09:23:13;;;;;;;25.02;10.60;;;-4.40;99.90;;;-6.09;100.00;102243.34;4906400;29;20043;-77
2022/12/18 09:25:39;;;;;;;23.70;9.88;;;-4.20;99.90;;;-6.01;100.00;102232.38;4901418;29;20154;-77
2022/12/18 09:28:11;;;;;;;22.75;10.43;;;-4.10;99.90;;;-5.92;100.00;102236.41;4904509;29;20135;-77
2022/12/18 09:30:39;;;;;;;23.98;10.93;;;-4.00;99.90;;;-5.85;100.00;102237.84;4908249;29;20212;-78
2022/12/18 09:33:05;;;;;;;20.33;10.05;;;-3.80;99.90;;;-5.74;100.00;102240.00;4907608;29;20032;-77
2022/12/18 09:35:31;;;;;;;22.60;11.18;;;-3.60;99.90;;;-5.61;100.00;102244.72;4907430;29;20032;-77
2022/12/18 09:37:56;;;;;;;19.67;11.00;;;-3.30;99.90;;;-5.47;100.00;102239.63;4905254;29;20080;-78
2022/12/18 09:40:28;;;;;;;22.67;11.18;;;-2.90;99.90;;;-5.25;100.00;102249.25;4901314;29;20507;-77
2022/12/18 09:43:02;;;;;;;21.00;10.45;;;-2.40;99.90;;;-4.92;100.00;102244.06;4908534;29;20451;-78
2022/12/18 09:45:38;;;;;;;19.77;11.23;;;-1.60;99.90;;;-4.44;100.00;102245.28;4912072;29;20028;-77
2022/12/18 09:48:08;;;;;;;17.70;10.43;;;-1.00;99.90;;;-3.75;100.00;102256.72;4909044;29;20032;-81
2022/12/18 09:50:39;;;;;;;19.10;9.23;;;0.00;99.90;;;-2.87;100.00;102261.66;4913372;29;20040;-81
2022/12/18 09:53:17;;;;;;;16.65;8.40;;;1.10;99.90;;;-2.09;93.80;102257.06;4904699;29;20035;-78
2022/12/18 09:55:48;;;;;;;17.90;8.05;;;1.80;99.90;;;-1.12;83.72;102265.28;4904571;29;20047;-79
2022/12/18 09:58:17;;;;;;;11.88;7.00;;;2.20;99.90;;;-0.42;73.06;102266.03;4905631;29;20028;-80
2022/12/18 10:00:43;;;;;;;15.00;7.28;;;2.60;99.90;;;-0.34;70.12;102266.34;4909557;29;20111;-79
2022/12/18 10:03:15;;;;;;;21.70;7.50;;;2.80;99.90;;;-0.23;67.05;102271.88;4906182;29;20055;-78
2022/12/18 10:06:07;;;;;;;15.43;7.28;;;2.70;99.90;;;0.22;68.12;102270.56;4903139;29;20036;-76
2022/12/18 10:08:45;;;;;;;14.65;7.25;;;2.80;99.90;;;-0.93;68.77;102270.28;4906957;29;20043;-77
2022/12/18 10:11:43;;;;;;;;;;;2.50;99.90;;;-2.13;75.83;102267.09;4910308;29;20044;-78
2022/12/18 10:14:35;;;;;;;13.57;7.90;;;1.40;99.90;;;-1.90;80.69;102251.44;4909201;29;19974;-76
2022/12/18 10:17:23;;;;;;;15.30;7.55;;;0.70;99.90;;;-0.89;76.78;102269.13;4909931;29;20132;-78